Durand, Wisconsin
Current Conditions -  °F | °C
As of 9:00 AM on Thursday 30 Oct 2014 (Local Time) from KLUM Reporting Station
Overcast Overcast  
Wind Chill: 37°   Ceiling: 7000
Heat Index: 37°   Visibility: 10mi
Dew Point: 34°   Wind: 0mph
Humidity: 89%   Direction: NA
Pressure: 30.07"   Gusts: NA
Location:  44.63°N, 91.97°W
Report Text: KLUM 301400Z AUTO 00000KT 10SM OVC070 03/01 A3007 RMK AO2 T00300013
Loading
Personal Weather Stations






























Interactive Weather Map
Tropical Storm Tracking
New forecast layout! Learn more

10-Day Weather Forecast

Advertisements
Track Severe Weather on mobile